06R weather

Public forecast

Using degrees Fahrenheit for public forecast. Weather courtesy of forecast.io.

Closest aviation weather report (METAR) to Grawunder Field

Closest report is Brenham Municipal Airport, 17.9 nm (33.2 km) NNW. Retrieved 2020/08/14 01:35 UTC (12 minutes ago):

K11R 140135Z AUTO 16006KT 10SM CLR 32/23 A2990 RMK AO2 T03220228

Closest aviation forecast (TAF) to Grawunder Field

Closest forecast is Sugar Land Regional Airport, 36.2 nm (67.1 km) ESE. Retrieved 2020-08-14 00:42 UTC (1 hour ago):

TAF KSGR 132340Z 1400/1424 17007KT P6SM FEW050 FM140500 20004KT P6SM SKC FM141400 23009KT P6SM FEW025 FM141800 21008KT P6SM SCT050 FM142300 17008KT P6SM FEW050